Time;durP1;ratioP1;P1;durP2;ratioP2;P2;SDS_P1;SDS_P2;PMS_P1;PMS_P2;Temp;Humidity;BMP_temperature;BMP_pressure;BME280_temperature;BME280_humidity;BME280_pressure;Samples;Min_cycle;Max_cycle;Signal;HPM_P1;HPM_P2
2022/03/12 00:00:46;;;;;;;20.17;13.35;;;;;;;0.49;47.29;95811.41;4917418;29;20040;-78
2022/03/12 00:03:13;;;;;;;20.50;12.98;;;;;;;0.51;47.31;95819.75;4925947;29;20039;-79
2022/03/12 00:05:45;;;;;;;15.40;12.43;;;;;;;0.46;47.16;95811.69;4918536;29;20409;-78
2022/03/12 00:08:12;;;;;;;20.80;13.38;;;;;;;0.48;47.43;95820.00;4916563;29;20036;-78
2022/03/12 00:10:41;;;;;;;23.13;11.80;;;;;;;0.52;47.48;95823.09;4916257;29;20036;-79
2022/03/12 00:13:06;;;;;;;18.70;12.30;;;;;;;0.47;47.85;95823.50;4897655;29;20043;-77
2022/03/12 00:15:32;;;;;;;19.13;12.98;;;;;;;0.46;47.95;95826.22;4882672;29;20033;-79
2022/03/12 00:17:58;;;;;;;20.88;13.23;;;;;;;0.37;48.51;95827.91;4917474;29;20040;-80
2022/03/12 00:20:28;;;;;;;28.48;14.93;;;;;;;0.06;50.99;95831.72;4929100;29;20038;-79
2022/03/12 00:22:54;;;;;;;24.85;14.40;;;;;;;-0.19;52.17;95836.50;4878452;29;20036;-78
2022/03/12 00:25:23;;;;;;;24.92;15.20;;;;;;;-0.34;52.68;95823.38;4914072;29;20051;-79
2022/03/12 00:27:50;;;;;;;21.58;14.05;;;;;;;-0.40;53.08;95834.16;4890464;29;20087;-78
2022/03/12 00:30:19;;;;;;;22.80;15.13;;;;;;;-0.58;54.31;95828.16;4899725;29;20028;-78
2022/03/12 00:32:48;;;;;;;28.88;16.63;;;;;;;-0.79;55.72;95833.44;4915580;29;20099;-78
2022/03/12 00:35:14;;;;;;;29.30;17.60;;;;;;;-1.06;57.00;95834.13;4902994;29;20036;-78
2022/03/12 00:37:39;;;;;;;35.67;19.10;;;;;;;-1.22;58.28;95837.22;4915688;29;20043;-78
2022/03/12 00:40:06;;;;;;;33.97;18.88;;;;;;;-1.19;58.65;95831.03;4915899;29;20052;-79
2022/03/12 00:42:31;;;;;;;30.50;18.13;;;;;;;-1.33;60.71;95839.09;4883231;29;20055;-78
2022/03/12 00:44:57;;;;;;;29.63;17.67;;;;;;;-1.66;62.61;95837.72;4913933;29;20029;-77
2022/03/12 00:47:23;;;;;;;39.35;21.05;;;;;;;-1.64;63.55;95841.72;4913496;29;20028;-79
2022/03/12 00:49:49;;;;;;;23.50;14.77;;;;;;;-1.63;62.92;95835.72;4915151;29;20039;-79
2022/03/12 00:52:18;;;;;;;24.63;15.55;;;;;;;-1.72;63.92;95843.34;4918465;29;20036;-78
2022/03/12 00:54:43;;;;;;;22.80;14.90;;;;;;;-1.73;65.43;95842.53;4919150;29;20556;-79
2022/03/12 00:57:11;;;;;;;16.25;11.68;;;;;;;-2.00;65.77;95840.56;4916200;29;20079;-79
2022/03/12 00:59:38;;;;;;;14.60;11.38;;;;;;;-2.36;67.14;95844.47;4915199;29;20166;-79
2022/03/12 01:02:04;;;;;;;11.45;8.90;;;;;;;-2.39;66.95;95851.56;4907404;29;20047;-79
2022/03/12 01:04:29;;;;;;;13.20;8.88;;;;;;;-2.50;67.34;95853.22;4918407;29;20040;-79
2022/03/12 01:06:55;;;;;;;10.57;8.70;;;;;;;-2.63;66.62;95846.72;4916678;29;20032;-79
2022/03/12 01:09:20;;;;;;;13.85;9.63;;;;;;;-2.68;67.96;95844.56;4917304;29;20959;-78
2022/03/12 01:11:45;;;;;;;15.68;9.57;;;;;;;-2.64;68.68;95850.19;4916366;29;20472;-79
2022/03/12 01:14:11;;;;;;;11.73;8.75;;;;;;;-2.67;68.37;95841.06;4915373;29;20036;-78
2022/03/12 01:16:36;;;;;;;13.60;10.35;;;;;;;-2.74;68.99;95843.34;4899788;29;20420;-79
2022/03/12 01:19:02;;;;;;;17.25;9.73;;;;;;;-2.59;68.44;95851.47;4899571;29;20114;-79
2022/03/12 01:21:27;;;;;;;16.35;9.50;;;;;;;-2.39;68.50;95849.00;4916726;29;20457;-78
2022/03/12 01:23:54;;;;;;;12.07;8.73;;;;;;;-2.29;67.58;95844.75;4884812;29;20050;-78
2022/03/12 01:26:22;;;;;;;11.88;9.00;;;;;;;-2.23;66.97;95851.91;4914427;29;20043;-78
2022/03/12 01:28:48;;;;;;;12.40;8.70;;;;;;;-2.22;66.57;95845.88;4918527;29;20032;-78
2022/03/12 01:31:14;;;;;;;10.85;7.60;;;;;;;-2.12;65.99;95849.25;4920592;23;20061;-78
2022/03/12 01:33:40;;;;;;;9.18;7.95;;;;;;;-2.13;66.14;95834.88;4914785;29;20047;-78
2022/03/12 01:36:06;;;;;;;8.98;7.30;;;;;;;-2.00;64.94;95845.66;4914691;29;20053;-78
2022/03/12 01:38:33;;;;;;;9.55;7.63;;;;;;;-1.85;65.11;95844.38;4912590;29;20567;-78
2022/03/12 01:41:02;;;;;;;8.40;7.60;;;;;;;-1.69;64.07;95840.53;4915585;29;20127;-79
2022/03/12 01:43:31;;;;;;;10.20;7.45;;;;;;;-1.52;63.31;95832.22;4914853;29;20028;-79
2022/03/12 01:46:03;;;;;;;9.82;7.35;;;;;;;-1.33;61.98;95834.00;4924850;29;20031;-78
2022/03/12 01:48:32;;;;;;;9.65;7.20;;;;;;;-1.22;62.05;95834.69;4913409;29;20040;-78
2022/03/12 01:50:57;;;;;;;8.02;6.75;;;;;;;-1.09;61.37;95836.16;4915204;29;20038;-79
2022/03/12 01:53:25;;;;;;;7.63;6.80;;;;;;;-1.11;59.90;95840.59;4916120;29;20032;-78
2022/03/12 01:55:50;;;;;;;10.35;7.43;;;;;;;-1.18;61.33;95831.84;4918669;23;20408;-78
2022/03/12 01:58:16;;;;;;;10.23;7.88;;;;;;;-1.14;61.04;95833.19;4918373;29;20036;-78
2022/03/12 02:00:43;;;;;;;8.43;7.57;;;;;;;-1.07;61.41;95836.81;4911750;29;20043;-79
2022/03/12 02:03:09;;;;;;;8.45;7.45;;;;;;;-1.00;61.13;95830.22;4917008;29;20032;-79
2022/03/12 02:05:35;;;;;;;10.05;7.78;;;;;;;-0.85;60.60;95826.31;4915885;29;20044;-79
2022/03/12 02:08:01;;;;;;;9.23;7.85;;;;;;;-0.83;60.94;95826.97;4900040;29;20115;-79
2022/03/12 02:10:27;;;;;;;12.05;7.47;;;;;;;-0.74;61.17;95821.06;4883817;29;20036;-78
2022/03/12 02:12:53;;;;;;;12.00;9.02;;;;;;;-0.63;61.69;95827.78;4891057;29;20039;-79
2022/03/12 02:15:19;;;;;;;10.43;8.15;;;;;;;-0.54;61.21;95823.56;4915255;29;20381;-78
2022/03/12 02:17:44;;;;;;;16.25;10.15;;;;;;;-0.49;61.10;95834.19;4885295;29;20043;-78
2022/03/12 02:20:10;;;;;;;12.57;8.63;;;;;;;-0.43;61.69;95838.75;4931043;29;20024;-78
2022/03/12 02:22:35;;;;;;;15.80;8.80;;;;;;;-0.35;59.89;95842.22;4920686;29;20046;-78
2022/03/12 02:25:01;;;;;;;13.95;9.18;;;;;;;-0.34;60.28;95843.81;4897412;29;20036;-78
2022/03/12 02:27:26;;;;;;;14.43;9.40;;;;;;;-0.30;59.55;95844.38;4914706;29;20048;-78
2022/03/12 02:29:52;;;;;;;8.93;8.02;;;;;;;-0.26;59.06;95838.03;4912427;29;20032;-78
2022/03/12 02:32:18;;;;;;;13.18;8.85;;;;;;;-0.25;59.67;95841.38;4913086;29;20036;-78
2022/03/12 02:34:50;;;;;;;13.35;8.90;;;;;;;-0.21;58.68;95832.47;4914490;29;20077;-79
2022/03/12 02:37:26;;;;;;;14.00;8.97;;;;;;;-0.29;60.09;95829.84;4881735;29;20036;-78
2022/03/12 02:39:51;;;;;;;14.02;9.25;;;;;;;-0.38;59.86;95842.50;4913953;29;20048;-78
2022/03/12 02:42:20;;;;;;;12.02;8.40;;;;;;;-0.27;59.32;95838.97;4913616;29;20040;-78
2022/03/12 02:44:47;;;;;;;11.55;8.45;;;;;;;-0.33;58.97;95844.63;4894295;29;20040;-78
2022/03/12 02:47:22;;;;;;;13.18;9.43;;;;;;;-0.29;59.34;95847.72;4893130;29;20050;-78
2022/03/12 02:49:58;;;;;;;10.50;8.15;;;;;;;-0.33;58.88;95848.00;4898645;29;20059;-79
2022/03/12 02:52:27;;;;;;;14.18;9.02;;;;;;;-0.27;58.80;95849.19;4928748;29;20099;-78
2022/03/12 02:54:53;;;;;;;13.35;9.05;;;;;;;-0.27;58.48;95853.50;4914273;29;20528;-78
2022/03/12 02:57:21;;;;;;;13.20;9.27;;;;;;;-0.25;58.43;95852.41;4908067;29;20036;-78
2022/03/12 02:59:50;;;;;;;17.73;9.18;;;;;;;-0.25;58.84;95852.41;4904759;23;20040;-78
2022/03/12 03:02:16;;;;;;;15.23;9.18;;;;;;;-0.31;58.64;95855.53;4902978;29;20040;-77
2022/03/12 03:04:41;;;;;;;11.90;8.55;;;;;;;-0.30;58.28;95859.69;4887435;29;20412;-77
2022/03/12 03:07:08;;;;;;;14.55;9.05;;;;;;;-0.32;58.19;95856.47;4903086;29;20035;-78
2022/03/12 03:09:34;;;;;;;9.25;7.72;;;;;;;-0.25;57.95;95862.63;4872471;29;20056;-78
2022/03/12 03:12:03;;;;;;;10.30;8.52;;;;;;;-0.27;58.10;95867.09;4913846;29;20044;-78
2022/03/12 03:14:29;;;;;;;13.20;8.30;;;;;;;-0.34;58.21;95861.69;4923630;29;20067;-78
2022/03/12 03:16:56;;;;;;;10.43;8.73;;;;;;;-0.30;58.47;95869.91;4906582;29;20032;-78
2022/03/12 03:19:26;;;;;;;13.38;9.95;;;;;;;-0.31;58.00;95865.75;4906578;29;20454;-78
2022/03/12 03:21:56;;;;;;;18.58;11.88;;;;;;;-0.28;58.14;95868.03;4921766;29;20043;-78
2022/03/12 03:24:21;;;;;;;21.17;13.95;;;;;;;-0.23;58.00;95873.53;4907272;29;20043;-77
2022/03/12 03:26:47;;;;;;;26.35;15.80;;;;;;;-0.25;58.01;95872.06;4910274;29;20033;-78
2022/03/12 03:29:15;;;;;;;20.95;14.65;;;;;;;-0.23;57.99;95870.97;4916367;29;20048;-77
2022/03/12 03:31:40;;;;;;;21.05;14.27;;;;;;;-0.23;58.07;95868.41;4888207;29;20088;-77
2022/03/12 03:34:06;;;;;;;20.13;14.80;;;;;;;-0.24;57.45;95873.66;4889956;29;20036;-77
2022/03/12 03:36:31;;;;;;;19.63;13.95;;;;;;;-0.29;57.96;95863.88;4874386;29;20063;-77
2022/03/12 03:38:57;;;;;;;22.73;14.98;;;;;;;-0.24;57.76;95868.56;4904573;29;20095;-77
2022/03/12 03:41:22;;;;;;;22.13;14.85;;;;;;;-0.25;58.40;95872.84;4904885;29;20044;-77
2022/03/12 03:43:48;;;;;;;28.75;16.30;;;;;;;-0.27;58.24;95873.94;4905643;29;20068;-78
2022/03/12 03:46:20;;;;;;;21.45;15.45;;;;;;;-0.27;57.84;95874.75;4919177;29;20062;-78
2022/03/12 03:48:51;;;;;;;21.95;15.65;;;;;;;-0.24;57.83;95882.13;4907339;29;20500;-78
2022/03/12 03:51:17;;;;;;;29.70;17.25;;;;;;;-0.21;58.34;95884.41;4887474;29;20063;-78
2022/03/12 03:53:42;;;;;;;29.77;17.55;;;;;;;-0.30;58.40;95887.81;4910815;29;20040;-78
2022/03/12 03:56:08;;;;;;;103.43;42.88;;;;;;;-0.39;58.61;95888.63;4917535;29;20040;-78
2022/03/12 03:58:34;;;;;;;54.78;29.75;;;;;;;-0.42;58.08;95886.34;4905835;29;20127;-77
2022/03/12 04:01:04;;;;;;;24.13;15.43;;;;;;;-0.45;57.83;95876.41;4906361;29;20115;-77
2022/03/12 04:03:33;;;;;;;17.15;11.60;;;;;;;-0.42;57.79;95884.59;4890080;29;20052;-77
2022/03/12 04:06:01;;;;;;;21.77;11.80;;;;;;;-0.45;58.39;95871.31;4904860;29;20040;-77
2022/03/12 04:08:27;;;;;;;20.25;13.18;;;;;;;-0.45;58.06;95878.97;4888781;29;20064;-79
2022/03/12 04:10:53;;;;;;;33.72;18.45;;;;;;;-0.49;57.92;95877.59;4890180;29;20103;-80
2022/03/12 04:13:20;;;;;;;43.50;24.00;;;;;;;-0.52;58.04;95886.34;4907147;29;20179;-79
2022/03/12 04:15:46;;;;;;;44.30;26.00;;;;;;;-0.45;57.63;95887.44;4906822;29;20033;-79
2022/03/12 04:18:15;;;;;;;41.67;26.30;;;;;;;-0.50;58.00;95888.78;4890309;29;20045;-79
2022/03/12 04:20:44;;;;;;;42.85;27.08;;;;;;;-0.51;57.88;95893.06;4890566;29;20048;-79
2022/03/12 04:23:12;;;;;;;36.08;18.85;;;;;;;-0.56;58.04;95894.44;4891581;29;20061;-79
2022/03/12 04:25:38;;;;;;;35.85;20.25;;;;;;;-0.67;57.88;95901.28;4906417;29;20039;-79
2022/03/12 04:28:08;;;;;;;45.90;21.33;;;;;;;-0.74;58.37;95905.34;4890835;29;20052;-79
2022/03/12 04:30:34;;;;;;;47.83;20.92;;;;;;;-0.68;58.18;95899.69;4904632;23;20180;-79
2022/03/12 04:32:59;;;;;;;46.88;20.40;;;;;;;-0.67;58.35;95903.03;4936490;29;20060;-78
2022/03/12 04:37:53;;;;;;;44.47;20.85;;;;;;;-0.75;58.34;95916.50;4939020;23;20056;-79
2022/03/12 04:40:24;;;;;;;30.05;18.15;;;;;;;-0.74;58.00;95910.44;4922756;29;20213;-78
2022/03/12 04:42:50;;;;;;;38.25;19.00;;;;;;;-0.73;57.97;95913.81;4936896;29;20067;-79
2022/03/12 04:45:17;;;;;;;20.00;12.25;;;;;;;-0.81;58.09;95913.69;4922216;29;20040;-78
2022/03/12 04:47:43;;;;;;;13.13;8.90;;;;;;;-1.01;59.09;95916.22;4913677;29;20044;-77
2022/03/12 04:50:10;;;;;;;13.30;9.07;;;;;;;-1.15;59.62;95920.91;4914902;29;20039;-79
2022/03/12 04:52:35;;;;;;;14.00;8.63;;;;;;;-1.33;59.86;95926.66;4917181;29;20091;-79
2022/03/12 04:55:10;;;;;;;11.98;9.02;;;;;;;-1.34;59.95;95932.69;4909872;29;20028;-78
2022/03/12 04:57:36;;;;;;;14.65;8.88;;;;;;;-1.31;59.95;95929.06;4927173;29;20047;-79
2022/03/12 05:00:05;;;;;;;12.75;8.68;;;;;;;-1.25;59.43;95924.25;4916659;29;20032;-79
2022/03/12 05:02:32;;;;;;;17.15;10.63;;;;;;;-1.19;59.33;95930.56;4915095;29;20024;-79
2022/03/12 05:04:57;;;;;;;24.40;15.82;;;;;;;-1.18;59.44;95933.94;4899865;29;20055;-78
2022/03/12 05:07:26;;;;;;;26.02;15.80;;;;;;;-1.10;59.06;95926.44;4914607;29;20420;-78
2022/03/12 05:09:53;;;;;;;65.07;37.92;;;;;;;-0.88;58.56;95935.59;4914420;29;20048;-77
2022/03/12 05:12:18;;;;;;;90.32;42.28;;;;;;;-0.68;57.30;95943.09;4912429;29;20064;-78
2022/03/12 05:14:48;;;;;;;88.20;43.22;;;;;;;-0.46;57.67;95946.34;4912284;29;20052;-78
2022/03/12 05:17:14;;;;;;;105.65;54.88;;;;;;;-0.34;57.91;95940.13;4914186;29;20113;-77
2022/03/12 05:19:39;;;;;;;79.10;41.80;;;;;;;-0.21;55.75;95940.63;4912449;29;20182;-77
2022/03/12 05:22:05;;;;;;;60.00;31.92;;;;;;;-0.05;56.45;95945.97;4911185;29;20031;-77
2022/03/12 05:24:31;;;;;;;95.95;47.00;;;;;;;-0.04;56.42;95950.16;4914118;29;20473;-78
2022/03/12 05:26:58;;;;;;;86.80;42.95;;;;;;;0.09;55.06;95961.84;4914268;29;20507;-78
2022/03/12 05:29:24;;;;;;;79.30;39.85;;;;;;;0.14;54.66;95960.47;4912482;29;20032;-78
2022/03/12 05:31:52;;;;;;;88.10;40.30;;;;;;;0.25;54.56;95957.75;4912715;29;20177;-77
2022/03/12 05:34:21;;;;;;;78.18;40.88;;;;;;;0.35;53.79;95965.41;4913011;29;20539;-78
2022/03/12 05:36:46;;;;;;;110.15;50.63;;;;;;;0.52;53.48;95964.66;4913494;29;20044;-78
2022/03/12 05:39:12;;;;;;;58.75;33.38;;;;;;;0.63;53.38;95967.97;4914042;29;20039;-78
2022/03/12 05:41:38;;;;;;;52.58;27.52;;;;;;;0.73;52.71;95966.16;4905953;29;20032;-78
2022/03/12 05:44:04;;;;;;;50.28;25.92;;;;;;;0.87;53.11;95973.38;4897755;29;20563;-78
2022/03/12 05:46:31;;;;;;;50.22;24.27;;;;;;;1.12;51.24;95980.34;4899091;29;20123;-79
2022/03/12 05:48:57;;;;;;;40.65;23.60;;;;;;;1.38;51.19;95982.22;4899773;29;20043;-79
2022/03/12 05:51:23;;;;;;;47.38;25.95;;;;;;;1.64;50.07;95993.34;4925091;29;20043;-79
2022/03/12 05:53:49;;;;;;;49.30;25.63;;;;;;;1.82;48.78;95995.91;4914854;29;20504;-79
2022/03/12 05:56:14;;;;;;;43.42;25.40;;;;;;;1.80;49.07;95993.50;4897632;29;20043;-79
2022/03/12 05:58:40;;;;;;;43.50;25.30;;;;;;;1.85;49.11;95995.59;4913560;29;20048;-79
2022/03/12 06:01:06;;;;;;;50.75;27.25;;;;;;;1.79;49.29;95997.00;4882864;29;20115;-78
2022/03/12 06:03:32;;;;;;;47.25;26.58;;;;;;;1.77;49.57;95998.88;4915190;29;20119;-78
2022/03/12 06:05:58;;;;;;;54.75;27.55;;;;;;;1.84;49.52;96003.44;4917053;29;20123;-78
2022/03/12 06:08:24;;;;;;;52.67;25.90;;;;;;;1.92;48.92;96003.50;4933003;29;20064;-78
2022/03/12 06:10:54;;;;;;;48.78;26.63;;;;;;;1.93;48.93;96007.66;4918792;29;20036;-78
2022/03/12 06:13:23;;;;;;;41.20;22.83;;;;;;;1.96;48.94;96009.97;4913898;29;20047;-78
2022/03/12 06:15:58;;;;;;;40.38;19.83;;;;;;;2.04;48.95;96010.00;4913786;29;20115;-78
2022/03/12 06:18:29;;;;;;;48.42;26.98;;;;;;;2.23;48.69;96007.25;4898927;29;20043;-79
2022/03/12 06:20:55;;;;;;;48.85;24.63;;;;;;;2.61;47.80;96013.75;4906339;29;20040;-79
2022/03/12 06:23:20;;;;;;;30.00;17.83;;;;;;;2.94;47.08;96006.97;4908122;29;20047;-79
2022/03/12 06:25:46;;;;;;;27.80;16.00;;;;;;;3.28;45.64;96011.25;4917173;29;20036;-79
2022/03/12 06:28:11;;;;;;;28.27;17.30;;;;;;;3.64;45.09;96011.00;4915781;29;20441;-80
2022/03/12 06:30:38;;;;;;;29.52;16.23;;;;;;;3.90;44.23;96011.63;4884166;29;20058;-79
2022/03/12 06:33:05;;;;;;;29.45;17.23;;;;;;;4.15;43.38;96010.69;4885234;29;20072;-80
2022/03/12 06:35:31;;;;;;;24.73;15.35;;;;;;;4.48;43.34;96008.06;4918447;29;20131;-79
2022/03/12 06:37:56;;;;;;;24.85;14.63;;;;;;;4.80;42.30;96015.69;4904476;29;20079;-78
2022/03/12 06:40:28;;;;;;;18.20;12.27;;;;;;;4.94;41.25;96018.56;4923494;29;20037;-80
2022/03/12 06:42:56;;;;;;;18.38;12.32;;;;;;;5.05;40.33;96020.78;4921483;29;20032;-80
2022/03/12 06:45:23;;;;;;;18.58;11.02;;;;;;;5.25;38.99;96018.59;4918332;29;20169;-80
2022/03/12 06:47:48;;;;;;;14.68;10.93;;;;;;;5.32;39.33;96025.47;4920576;29;20040;-81
2022/03/12 06:50:17;;;;;;;15.60;10.32;;;;;;;5.41;37.94;96034.78;4904394;29;20040;-81
2022/03/12 06:52:45;;;;;;;14.88;9.88;;;;;;;5.41;36.65;96033.97;4903144;29;20555;-80
2022/03/12 06:55:10;;;;;;;12.63;9.82;;;;;;;5.66;36.09;96032.84;4904486;29;20043;-80
2022/03/12 06:57:37;;;;;;;13.35;9.90;;;;;;;5.93;36.83;96036.72;4921031;29;20556;-80
2022/03/12 07:00:04;;;;;;;10.90;8.55;;;;;;;6.11;34.02;96036.44;4920906;29;20503;-82
2022/03/12 07:02:29;;;;;;;14.55;9.45;;;;;;;6.43;34.78;96035.34;4920655;29;20060;-81
2022/03/12 07:04:55;;;;;;;11.68;9.38;;;;;;;6.63;35.56;96039.03;4922183;29;20469;-80
2022/03/12 07:07:20;;;;;;;12.77;9.35;;;;;;;6.72;32.39;96033.78;4920456;29;20036;-80
2022/03/12 07:09:46;;;;;;;12.93;9.48;;;;;;;6.32;31.98;96040.94;4904149;29;20496;-81
2022/03/12 07:12:11;;;;;;;13.75;9.38;;;;;;;5.62;32.87;96041.09;4903440;29;20036;-82
2022/03/12 07:14:37;;;;;;;11.80;9.35;;;;;;;5.12;32.76;96047.47;4920735;29;20048;-79
2022/03/12 07:17:03;;;;;;;9.32;7.72;;;;;;;4.85;33.38;96047.88;4903436;29;20032;-78
2022/03/12 07:19:31;;;;;;;9.75;7.85;;;;;;;4.98;33.69;96048.16;4902521;29;20035;-79
2022/03/12 07:21:57;;;;;;;14.68;9.23;;;;;;;5.22;33.10;96050.66;4917004;29;20032;-78
2022/03/12 07:24:22;;;;;;;11.20;8.40;;;;;;;5.23;32.29;96047.13;4914698;29;20079;-77
2022/03/12 07:26:48;;;;;;;14.43;9.10;;;;;;;5.05;32.53;96051.72;4914301;29;20035;-77
2022/03/12 07:29:13;;;;;;;11.10;8.18;;;;;;;5.21;33.21;96061.97;4898864;29;20024;-78
2022/03/12 07:31:39;;;;;;;13.23;9.07;;;;;;;5.37;31.77;96061.09;4915382;29;20043;-77
2022/03/12 07:34:05;;;;;;;12.90;8.68;;;;;;;5.00;30.73;96066.84;4915559;29;20040;-77
2022/03/12 07:36:30;;;;;;;10.02;7.60;;;;;;;4.95;31.73;96071.72;4915219;29;20088;-76
2022/03/12 07:38:58;;;;;;;13.15;8.23;;;;;;;5.16;32.16;96074.53;4916848;29;20075;-77
2022/03/12 07:41:24;;;;;;;11.77;8.63;;;;;;;5.35;32.30;96071.53;4916024;29;20071;-77
2022/03/12 07:43:50;;;;;;;12.65;8.23;;;;;;;5.72;32.05;96076.03;4886679;29;20032;-79
2022/03/12 07:46:15;;;;;;;7.90;6.57;;;;;;;5.49;28.73;96079.53;4918514;29;20033;-82
2022/03/12 07:48:41;;;;;;;7.82;6.55;;;;;;;5.33;29.78;96081.22;4931545;29;20039;-78
2022/03/12 07:51:07;;;;;;;8.40;6.32;;;;;;;5.37;28.79;96085.09;4910645;29;20044;-81
2022/03/12 07:53:33;;;;;;;11.80;6.93;;;;;;;5.02;29.46;96072.63;4919353;29;20047;-80
2022/03/12 07:55:59;;;;;;;11.65;8.00;;;;;;;4.91;29.10;96080.75;4901590;29;20029;-80
2022/03/12 07:58:27;;;;;;;10.95;8.02;;;;;;;4.86;30.11;96077.84;4902669;29;20032;-77
2022/03/12 08:00:56;;;;;;;9.10;6.72;;;;;;;4.91;29.28;96073.00;4919027;29;20040;-80
2022/03/12 08:03:23;;;;;;;9.15;6.90;;;;;;;4.77;29.83;96077.88;4918236;29;20036;-81
2022/03/12 08:05:49;;;;;;;9.40;7.15;;;;;;;4.72;29.52;96085.31;4903085;29;20088;-82
2022/03/12 08:08:14;;;;;;;12.45;7.65;;;;;;;4.43;30.85;96095.31;4902419;29;20079;-81
2022/03/12 08:13:24;;;;;;;9.75;6.60;;;;;;;3.25;31.64;96083.53;4916999;29;20982;-80
2022/03/12 08:15:50;;;;;;;9.25;6.35;;;;;;;3.29;31.44;96074.56;4918976;29;20513;-81
2022/03/12 08:18:16;;;;;;;8.50;7.20;;;;;;;3.23;31.31;96080.31;4919264;29;20050;-81
2022/03/12 08:20:44;;;;;;;10.15;6.72;;;;;;;2.90;32.31;96094.75;4887580;29;20035;-81
2022/03/12 08:23:10;;;;;;;8.00;6.60;;;;;;;2.97;32.81;96096.59;4918036;29;20051;-80
2022/03/12 08:25:36;;;;;;;11.63;7.05;;;;;;;3.26;32.54;96087.72;4918260;29;20099;-81
2022/03/12 08:28:02;;;;;;;8.73;7.47;;;;;;;3.57;31.40;96081.06;4918166;29;20530;-82
2022/03/12 08:30:28;;;;;;;7.85;6.93;;;;;;;3.63;31.53;96086.56;4918461;29;20135;-81
2022/03/12 08:32:54;;;;;;;7.72;6.30;;;;;;;3.85;30.50;96091.09;4917210;29;20603;-81
2022/03/12 08:35:19;;;;;;;7.85;6.55;;;;;;;3.51;30.68;96084.25;4917432;29;20032;-81
2022/03/12 08:37:45;;;;;;;10.55;7.00;;;;;;;3.09;32.06;96098.88;4923326;29;20051;-80
2022/03/12 08:40:14;;;;;;;10.73;6.07;;;;;;;3.09;30.87;96104.00;4920060;29;20044;-82
2022/03/12 08:42:40;;;;;;;8.02;5.80;;;;;;;3.34;31.04;96092.09;4918261;29;20091;-81
2022/03/12 08:45:08;;;;;;;12.27;6.88;;;;;;;3.64;30.14;96096.69;4901940;29;20127;-81
2022/03/12 08:47:33;;;;;;;8.98;5.93;;;;;;;3.67;29.29;96087.84;4889481;29;20122;-82
2022/03/12 08:49:59;;;;;;;8.02;6.47;;;;;;;3.57;29.94;96087.97;4902975;29;20051;-81
2022/03/12 08:52:25;;;;;;;9.45;7.38;;;;;;;3.44;30.28;96091.00;4917834;29;20039;-81
2022/03/12 08:54:51;;;;;;;9.48;7.05;;;;;;;2.78;31.21;96104.53;4909445;29;20112;-81
2022/03/12 08:57:17;;;;;;;7.55;6.10;;;;;;;2.65;31.78;96106.69;4902574;29;20040;-81
2022/03/12 08:59:43;;;;;;;12.68;7.65;;;;;;;2.22;32.42;96099.78;4902710;29;20036;-81
2022/03/12 09:02:09;;;;;;;10.05;7.22;;;;;;;2.55;32.16;96106.75;4909382;29;20036;-81
2022/03/12 09:04:35;;;;;;;15.07;6.88;;;;;;;2.96;31.47;96094.19;4904364;29;20056;-81
2022/03/12 09:07:00;;;;;;;9.65;7.40;;;;;;;3.38;31.32;96089.03;4901104;29;20036;-81
2022/03/12 09:09:26;;;;;;;10.93;7.10;;;;;;;3.06;31.37;96101.75;4901643;29;20036;-81
2022/03/12 09:11:51;;;;;;;7.53;6.38;;;;;;;2.90;31.57;96094.75;4918313;29;20432;-81
2022/03/12 09:14:17;;;;;;;12.23;7.63;;;;;;;3.25;31.13;96094.63;4918014;29;20043;-82
2022/03/12 09:16:42;;;;;;;15.13;9.05;;;;;;;3.57;32.40;96091.34;4929645;29;20030;-82
2022/03/12 09:19:08;;;;;;;56.95;25.70;;;;;;;3.90;32.09;96099.97;4887088;29;20028;-81
2022/03/12 09:21:35;;;;;;;112.55;48.05;;;;;;;4.18;31.69;96091.91;4917091;29;20032;-82
2022/03/12 09:24:03;;;;;;;53.72;25.63;;;;;;;4.45;31.94;96109.63;4918059;29;20117;-83
2022/03/12 09:26:28;;;;;;;22.83;12.52;;;;;;;4.71;31.42;96099.13;4902334;29;20040;-82
2022/03/12 09:28:54;;;;;;;16.70;7.75;;;;;;;4.88;29.91;96096.50;4901903;29;20032;-83
2022/03/12 09:31:20;;;;;;;9.70;6.97;;;;;;;4.85;29.69;96102.00;4902243;29;20127;-81
2022/03/12 09:33:46;;;;;;;17.90;7.35;;;;;;;4.44;28.53;96102.88;4886196;29;20107;-81
2022/03/12 09:36:11;;;;;;;9.70;6.78;;;;;;;4.33;28.51;96105.75;4887360;29;20103;-82
2022/03/12 09:38:37;;;;;;;8.48;6.53;;;;;;;3.81;27.79;96100.09;4909454;29;20048;-81
2022/03/12 09:41:03;;;;;;;8.95;6.15;;;;;;;3.59;29.28;96097.16;4919189;29;20063;-81
2022/03/12 09:43:29;;;;;;;9.88;7.00;;;;;;;3.84;29.39;96095.44;4902593;29;20032;-81
2022/03/12 09:45:54;;;;;;;8.95;5.97;;;;;;;4.20;29.20;96083.06;4917916;29;20035;-81
2022/03/12 09:48:19;;;;;;;6.97;5.68;;;;;;;4.37;29.60;96083.06;4920614;29;20697;-81
2022/03/12 09:50:45;;;;;;;9.05;6.57;;;;;;;4.30;28.68;96082.13;4902775;29;20032;-81
2022/03/12 09:53:11;;;;;;;8.77;6.22;;;;;;;3.88;28.85;96085.63;4919437;29;20044;-81
2022/03/12 09:55:37;;;;;;;9.05;6.50;;;;;;;3.67;29.37;96087.84;4919421;29;20032;-81
2022/03/12 09:58:03;;;;;;;8.10;6.05;;;;;;;3.70;29.54;96083.19;4886629;29;20437;-81
2022/03/12 10:00:28;;;;;;;7.00;6.30;;;;;;;3.87;30.00;96084.00;4902599;29;20035;-82
2022/03/12 10:02:54;;;;;;;12.85;6.93;;;;;;;4.22;31.26;96083.72;4917516;29;20066;-80
2022/03/12 10:05:19;;;;;;;11.18;6.78;;;;;;;4.48;30.06;96088.69;4916689;29;20040;-80
2022/03/12 10:07:45;;;;;;;6.88;5.90;;;;;;;4.64;28.92;96087.88;4902524;29;20048;-82
2022/03/12 10:10:17;;;;;;;11.68;6.53;;;;;;;4.83;27.80;96087.50;4918401;29;20095;-82
2022/03/12 10:12:43;;;;;;;8.77;6.85;;;;;;;4.70;27.10;96086.41;4880984;29;20157;-82
2022/03/12 10:15:10;;;;;;;12.68;7.13;;;;;;;4.72;27.36;96087.06;4918010;29;20063;-81
2022/03/12 10:17:36;;;;;;;11.35;6.88;;;;;;;4.64;29.94;96087.88;4886126;29;20563;-81
2022/03/12 10:20:03;;;;;;;9.82;6.97;;;;;;;4.76;28.92;96076.25;4916458;29;20043;-80
2022/03/12 10:22:29;;;;;;;10.95;7.65;;;;;;;4.82;28.29;96079.94;4885987;29;20072;-81
2022/03/12 10:24:54;;;;;;;7.90;7.10;;;;;;;4.89;28.15;96075.75;4916520;29;20056;-82
2022/03/12 10:27:20;;;;;;;9.48;7.50;;;;;;;5.10;28.64;96072.63;4901441;29;20484;-82
2022/03/12 10:29:46;;;;;;;10.98;7.53;;;;;;;4.96;28.16;96073.31;4926819;29;20061;-83
2022/03/12 10:32:25;;;;;;;13.52;7.97;;;;;;;5.11;29.09;96079.38;4909117;29;20036;-81
2022/03/12 10:34:52;;;;;;;8.20;6.60;;;;;;;4.22;29.25;96073.41;4894720;29;20036;-80
2022/03/12 10:37:25;;;;;;;12.15;7.57;;;;;;;4.07;29.64;96069.09;4907428;29;20044;-80
2022/03/12 10:40:03;;;;;;;;;;;;;;;3.96;30.04;96070.19;4922776;29;20049;-81
2022/03/12 10:42:31;;;;;;;15.18;7.90;;;;;;;3.87;30.12;96076.28;4903383;29;19987;-79
2022/03/12 10:45:03;;;;;;;15.82;9.25;;;;;;;3.65;30.76;96079.47;4923900;29;20413;-82
2022/03/12 10:47:29;;;;;;;11.88;8.35;;;;;;;3.44;31.19;96073.00;4917460;29;20024;-83
2022/03/12 10:49:59;;;;;;;18.83;8.43;;;;;;;3.50;31.56;96072.38;4922664;29;20434;-80
2022/03/12 10:52:27;;;;;;;10.07;8.18;;;;;;;3.60;31.74;96072.25;4902462;29;20287;-81
2022/03/12 10:54:53;;;;;;;9.38;7.10;;;;;;;3.56;31.45;96064.00;4916814;29;20412;-77
2022/03/12 10:57:19;;;;;;;9.63;7.43;;;;;;;3.59;30.67;96076.59;4914786;29;20528;-80
2022/03/12 10:59:45;;;;;;;12.73;7.55;;;;;;;3.61;30.97;96068.72;4916489;29;20042;-77
2022/03/12 11:02:10;;;;;;;9.60;7.53;;;;;;;3.66;31.12;96061.31;4912779;29;20028;-79
2022/03/12 11:04:36;;;;;;;9.68;7.43;;;;;;;3.96;30.08;96062.47;4897080;29;20036;-78
2022/03/12 11:07:25;;;;;;;14.15;8.70;;;;;;;4.36;31.58;96047.97;4913526;29;20035;-78
2022/03/12 11:09:53;;;;;;;15.27;7.65;;;;;;;4.53;29.67;96062.44;4902453;29;20052;-77
2022/03/12 11:12:36;;;;;;;11.18;6.57;;;;;;;4.52;29.52;96048.75;4911679;29;20040;-77
2022/03/12 11:15:16;;;;;;;7.93;7.13;;;;;;;4.39;29.44;96047.66;4910344;29;20036;-77
2022/03/12 11:17:45;;;;;;;10.02;6.65;;;;;;;4.28;29.30;96045.44;4913226;29;20078;-78
2022/03/12 11:20:17;;;;;;;25.92;10.75;;;;;;;4.16;29.37;96048.31;4912771;29;20044;-79
2022/03/12 11:25:21;;;;;;;12.93;7.18;;;;;;;4.62;29.96;96043.44;5209025;23;20692;-78
2022/03/12 11:27:50;;;;;;;7.40;6.70;;;;;;;4.61;28.53;96034.09;4919719;29;20489;-78
2022/03/12 11:30:20;;;;;;;13.43;6.78;;;;;;;4.50;29.58;96024.13;4913228;29;20032;-79
2022/03/12 11:32:46;;;;;;;10.50;7.70;;;;;;;4.06;29.62;96037.38;4916525;29;20036;-79
2022/03/12 11:35:15;;;;;;;8.73;6.53;;;;;;;4.12;29.55;96036.75;4899895;29;20032;-78